Terminal Aerodrome Forecast
Issued by NWS

Home | Current Version | Previous Version | Text Only | Print | Product List | Glossary On
Versions: 1 2 3 4 5 6 7 8 9 10 11 12 13 14 15 16 17 18 19 20 21 22
000
FTUS46 KPDT 271742 CCA
TAFYKM
TAF COR
KYKM 271742Z 2718/2818 26005KT P6SM SCT008 SCT100
     FM272100 28011KT P6SM SCT090 SCT120
     FM280300 28006KT P6SM FEW100 SCT200
     FM281200 26005KT 6SM BR FEW005 SCT060 BKN120=

USA.gov is the U.S. government's official web portal to all federal, state and local government web resources and services.